Time;durP1;ratioP1;P1;durP2;ratioP2;P2;SDS_P1;SDS_P2;PMS_P1;PMS_P2;Temp;Humidity;BMP_temperature;BMP_pressure;BME280_temperature;BME280_humidity;BME280_pressure;Samples;Min_cycle;Max_cycle;Signal;HPM_P1;HPM_P2
2022/03/29 00:01:58;;;;;;;15.67;6.43;;;;;;;-145.69;64.86;72081.00;5076933;28;20199;-77
2022/03/29 00:04:25;;;;;;;13.30;5.80;;;;;;;-145.69;64.77;72084.97;5076828;28;20202;-77
2022/03/29 00:06:52;;;;;;;16.37;5.83;;;;;;;-145.69;63.15;72063.09;5076637;28;20210;-77
2022/03/29 00:09:20;;;;;;;12.43;5.97;;;;;;;-145.69;63.82;72059.09;5076767;28;20199;-77
2022/03/29 00:11:48;;;;;;;20.87;6.83;;;;;;;-145.69;63.65;72061.09;5076453;28;20206;-77
2022/03/29 00:14:15;;;;;;;12.90;5.13;;;;;;;-145.69;64.06;72053.13;5076573;28;20198;-77
2022/03/29 00:16:42;;;;;;;13.50;5.40;;;;;;;-145.69;65.14;72069.06;5076406;28;20230;-77
2022/03/29 00:19:09;;;;;;;22.17;6.40;;;;;;;-145.69;64.66;72063.09;5076257;28;20677;-77
2022/03/29 00:21:35;;;;;;;15.03;6.13;;;;;;;-145.69;66.60;72086.97;5076628;28;20238;-77
2022/03/29 00:24:02;;;;;;;13.77;5.43;;;;;;;-145.69;68.90;72106.88;5076545;28;20202;-77
2022/03/29 00:26:31;;;;;;;13.13;6.33;;;;;;;-145.69;67.92;72104.88;5076592;28;20260;-77
2022/03/29 00:28:57;;;;;;;12.57;6.17;;;;;;;-145.69;67.98;72094.94;5076400;28;20230;-77
2022/03/29 00:31:24;;;;;;;14.43;5.30;;;;;;;-145.69;66.05;72082.97;5076287;28;20268;-77
2022/03/29 00:33:51;;;;;;;14.77;5.80;;;;;;;-145.69;66.39;72075.03;5076279;28;20202;-77
2022/03/29 00:36:18;;;;;;;14.87;6.10;;;;;;;-145.69;68.16;72077.00;5076462;28;20206;-77
2022/03/29 00:38:46;;;;;;;13.17;5.90;;;;;;;-145.69;67.06;72088.97;5076207;28;20202;-77
2022/03/29 00:41:13;;;;;;;14.43;6.60;;;;;;;-145.69;66.63;72071.03;5075894;28;20230;-77
2022/03/29 00:43:41;;;;;;;13.23;6.20;;;;;;;-145.69;66.63;72067.06;5075781;28;20241;-77
2022/03/29 00:46:07;;;;;;;12.47;5.70;;;;;;;-145.69;66.11;72061.09;5076061;28;20221;-77
2022/03/29 00:48:34;;;;;;;15.20;5.83;;;;;;;-145.69;64.49;72023.28;5075791;28;20294;-77
2022/03/29 00:51:01;;;;;;;12.67;5.67;;;;;;;-145.69;63.70;72023.28;5076032;28;20203;-77
2022/03/29 00:53:28;;;;;;;29.87;6.07;;;;;;;-145.69;64.06;72017.31;5075687;28;20203;-77
2022/03/29 00:55:55;;;;;;;16.07;5.73;;;;;;;-145.69;64.04;72003.38;5075926;28;20222;-77
2022/03/29 00:58:22;;;;;;;15.30;6.40;;;;;;;-145.69;64.48;71999.41;5075719;28;20199;-76
2022/03/29 01:00:52;;;;;;;17.40;5.87;;;;;;;-145.69;64.19;72001.38;5075456;28;20225;-77
2022/03/29 01:03:19;;;;;;;15.17;5.90;;;;;;;-145.69;64.71;72013.31;5075687;28;20203;-77
2022/03/29 01:05:45;;;;;;;11.17;5.33;;;;;;;-145.69;64.47;72019.31;5056945;28;20194;-77
2022/03/29 01:08:12;;;;;;;14.60;6.13;;;;;;;-145.69;62.54;71985.47;5055499;28;20681;-77
2022/03/29 01:10:38;;;;;;;17.57;6.13;;;;;;;-145.69;62.77;71995.41;5055512;28;20204;-77
2022/03/29 01:13:06;;;;;;;12.23;5.90;;;;;;;-145.69;63.08;71983.47;5072708;28;20553;-77
2022/03/29 01:15:37;;;;;;;19.67;6.63;;;;;;;-145.69;63.40;71965.56;5075119;28;20234;-77
2022/03/29 01:18:05;;;;;;;13.80;6.13;;;;;;;-145.69;64.18;71979.50;5075405;28;20194;-76
2022/03/29 01:20:32;;;;;;;13.57;5.83;;;;;;;-145.69;63.46;71977.50;5075376;28;20326;-76
2022/03/29 01:23:02;;;;;;;17.10;6.27;;;;;;;-145.69;62.60;71983.47;5075405;28;20210;-77
2022/03/29 01:25:34;;;;;;;15.17;5.80;;;;;;;-145.69;62.65;71975.50;5075314;28;20749;-76
2022/03/29 01:28:03;;;;;;;14.13;5.70;;;;;;;-145.69;63.06;71979.50;5075095;28;20210;-77
2022/03/29 01:30:30;;;;;;;11.70;5.37;;;;;;;-145.69;63.24;71983.47;5075331;28;20252;-76
2022/03/29 01:32:57;;;;;;;13.87;5.67;;;;;;;-145.69;61.46;71961.59;5075067;28;20673;-76
2022/03/29 01:35:25;;;;;;;15.00;6.30;;;;;;;-145.69;62.67;71963.56;5075131;28;20203;-76
2022/03/29 01:37:52;;;;;;;15.47;6.40;;;;;;;-145.69;64.29;71961.59;5074588;28;20195;-76
2022/03/29 01:40:23;;;;;;;14.23;5.83;;;;;;;-145.69;63.86;71967.56;5074934;28;20268;-76
2022/03/29 01:42:51;;;;;;;14.33;5.87;;;;;;;-145.69;64.58;71967.56;5074822;28;20281;-76
2022/03/29 01:45:19;;;;;;;12.90;5.63;;;;;;;-145.69;63.45;71963.56;5075089;28;20267;-76
2022/03/29 01:47:45;;;;;;;12.53;5.90;;;;;;;-145.69;64.64;71941.69;5074917;28;20229;-77
2022/03/29 01:50:13;;;;;;;16.93;6.50;;;;;;;-145.69;65.07;71961.59;5074960;28;20201;-77
2022/03/29 01:52:41;;;;;;;15.73;6.27;;;;;;;-145.69;64.61;71969.53;5074672;28;20681;-76
2022/03/29 01:55:09;;;;;;;13.33;6.03;;;;;;;-145.69;66.01;71987.47;5074585;28;20297;-77
2022/03/29 01:57:37;;;;;;;13.77;6.10;;;;;;;-145.69;66.80;71979.50;5074939;28;20198;-77
2022/03/29 02:02:49;;;;;;;12.50;5.50;;;;;;;-145.69;66.18;71983.47;5074583;28;20198;-77
2022/03/29 02:05:16;;;;;;;14.70;6.37;;;;;;;-145.69;64.69;71959.59;5074519;28;20205;-77
2022/03/29 02:07:42;;;;;;;13.90;6.43;;;;;;;-145.69;65.20;71975.50;5074075;28;20195;-76
2022/03/29 02:10:09;;;;;;;16.57;6.63;;;;;;;-145.69;64.67;71975.50;5074315;28;20593;-76
2022/03/29 02:12:37;;;;;;;19.00;6.50;;;;;;;-145.69;63.23;71955.63;5074161;28;20654;-76
2022/03/29 02:15:05;;;;;;;13.20;5.97;;;;;;;-145.69;64.18;71961.59;5073979;28;20199;-76
2022/03/29 02:17:31;;;;;;;17.27;6.13;;;;;;;-145.69;63.74;71943.69;5073940;28;20248;-76
2022/03/29 02:19:58;;;;;;;17.37;6.60;;;;;;;-145.69;64.38;71957.59;5074156;28;20207;-77
2022/03/29 02:22:24;;;;;;;15.00;5.53;;;;;;;-145.69;65.86;71979.50;5074309;28;20229;-77
2022/03/29 02:24:52;;;;;;;12.10;5.77;;;;;;;-145.69;67.25;71989.44;5074318;28;20611;-76
2022/03/29 02:27:18;;;;;;;15.80;6.97;;;;;;;-145.69;66.26;71979.50;5074158;28;20194;-77
2022/03/29 02:29:46;;;;;;;19.27;6.27;;;;;;;-145.69;67.80;71989.44;5074147;28;20248;-76
2022/03/29 02:32:13;;;;;;;12.23;5.77;;;;;;;-145.69;67.50;71997.41;5073679;28;20203;-76
2022/03/29 02:34:39;;;;;;;17.47;6.07;;;;;;;-145.69;67.35;71999.41;5060651;28;20195;-76
2022/03/29 02:37:06;;;;;;;15.77;5.83;;;;;;;-145.69;67.14;71993.44;5073673;28;20558;-76
2022/03/29 02:39:32;;;;;;;21.30;6.70;;;;;;;-145.69;66.84;71979.50;5073695;28;20199;-77
2022/03/29 02:41:59;;;;;;;15.00;6.47;;;;;;;-145.69;67.20;71979.50;5073704;28;20245;-76
2022/03/29 02:44:25;;;;;;;14.07;5.97;;;;;;;-145.69;67.39;71983.47;5073674;28;20199;-77
2022/03/29 02:46:53;;;;;;;13.40;5.93;;;;;;;-145.69;68.40;71981.50;5073581;28;20199;-76
2022/03/29 02:49:20;;;;;;;13.13;5.77;;;;;;;-145.69;66.10;71977.50;5073521;28;20206;-76
2022/03/29 02:51:47;;;;;;;15.30;5.67;;;;;;;-145.69;66.76;71965.56;5073602;28;20203;-76
2022/03/29 02:54:14;;;;;;;14.67;6.73;;;;;;;-145.69;69.44;71979.50;5073521;28;20256;-76
2022/03/29 02:56:40;;;;;;;14.87;5.83;;;;;;;-145.69;70.63;72011.34;5073523;28;20201;-77
2022/03/29 02:59:07;;;;;;;13.83;6.30;;;;;;;-145.69;68.94;71995.41;5073461;28;20202;-77
2022/03/29 03:01:34;;;;;;;12.03;6.03;;;;;;;-145.69;70.13;71997.41;5073214;28;20317;-76
2022/03/29 03:04:02;;;;;;;16.73;6.20;;;;;;;-145.69;68.73;71995.41;5072616;28;20198;-77
2022/03/29 03:06:28;;;;;;;13.30;6.07;;;;;;;-145.69;67.81;71969.53;5073632;28;20198;-77
2022/03/29 03:08:55;;;;;;;12.70;6.50;;;;;;;-145.69;67.63;71987.47;5073219;28;20607;-76
2022/03/29 03:11:22;;;;;;;14.17;5.67;;;;;;;-145.69;67.26;71973.53;5058171;28;20200;-77
2022/03/29 03:13:48;;;;;;;14.93;6.50;;;;;;;-145.69;67.18;71971.53;5064334;28;20194;-76
2022/03/29 03:16:15;;;;;;;15.27;6.17;;;;;;;-145.69;67.63;71977.50;5072953;28;20252;-76
2022/03/29 03:18:41;;;;;;;14.57;6.70;;;;;;;-145.69;67.56;71959.59;5072900;28;20492;-77
2022/03/29 03:21:10;;;;;;;15.03;6.30;;;;;;;-145.69;66.21;71951.63;5073290;28;20248;-76
2022/03/29 03:23:37;;;;;;;13.27;6.50;;;;;;;-145.69;65.97;71957.59;5073244;28;20268;-76
2022/03/29 03:26:03;;;;;;;12.90;6.20;;;;;;;-145.69;64.42;71945.66;5073315;28;20205;-76
2022/03/29 03:28:30;;;;;;;13.13;5.50;;;;;;;-145.69;63.53;71927.75;5072445;28;20553;-76
2022/03/29 03:30:56;;;;;;;13.93;6.07;;;;;;;-145.69;69.50;71967.56;5072956;28;20210;-77
2022/03/29 03:33:22;;;;;;;15.47;6.70;;;;;;;-145.69;69.22;71975.50;5072846;28;20245;-76
2022/03/29 03:35:49;;;;;;;17.63;5.93;;;;;;;-145.69;66.46;71963.56;5073214;28;20203;-76
2022/03/29 03:38:17;;;;;;;10.87;5.83;;;;;;;-145.69;66.97;71939.69;5072934;28;20206;-77
2022/03/29 03:40:43;;;;;;;13.67;6.07;;;;;;;-145.69;66.56;71951.63;5073007;28;20199;-76
2022/03/29 03:43:10;;;;;;;13.73;6.20;;;;;;;-145.69;68.52;71951.63;5072951;28;20201;-76
2022/03/29 03:45:36;;;;;;;13.83;6.27;;;;;;;-145.69;68.22;71961.59;5072771;28;20201;-76
2022/03/29 03:48:04;;;;;;;13.73;6.17;;;;;;;-145.69;66.95;71953.63;5073191;28;20198;-76
2022/03/29 03:50:30;;;;;;;12.43;5.90;;;;;;;-145.69;71.39;71971.53;5073074;28;20241;-76
2022/03/29 03:52:57;;;;;;;12.77;5.67;;;;;;;-145.69;69.90;71969.53;5073007;28;20199;-76
2022/03/29 03:55:25;;;;;;;14.20;6.13;;;;;;;-145.69;66.59;71923.78;5072764;28;20297;-77
2022/03/29 03:57:51;;;;;;;17.97;5.80;;;;;;;-145.69;71.02;71947.66;5072815;28;20207;-77
2022/03/29 04:00:21;;;;;;;14.40;6.38;;;;;;;-145.69;71.84;71953.63;5072390;28;20820;-76
2022/03/29 04:02:49;;;;;;;16.20;6.13;;;;;;;-145.69;67.91;71939.69;5072327;28;20313;-76
2022/03/29 04:05:16;;;;;;;17.20;5.97;;;;;;;-145.69;69.05;71927.75;5072699;28;20286;-76
2022/03/29 04:07:43;;;;;;;13.03;5.83;;;;;;;-145.69;73.28;71961.59;5072392;28;20556;-75
2022/03/29 04:10:10;;;;;;;17.70;5.70;;;;;;;-145.69;70.13;71951.63;5072748;28;20256;-76
2022/03/29 04:12:38;;;;;;;13.40;5.63;;;;;;;-145.69;70.08;71931.72;5072539;28;20252;-77
2022/03/29 04:15:06;;;;;;;12.83;6.00;;;;;;;-145.69;68.44;71905.88;5072544;28;20203;-76
2022/03/29 04:17:33;;;;;;;12.90;5.70;;;;;;;-145.69;71.19;71919.78;5072690;28;20203;-76
2022/03/29 04:19:59;;;;;;;12.90;5.80;;;;;;;-145.69;70.56;71931.72;5072700;28;20202;-76
2022/03/29 04:22:26;;;;;;;15.10;5.87;;;;;;;-145.69;68.43;71899.88;5072517;28;20234;-76
2022/03/29 04:24:52;;;;;;;13.93;5.90;;;;;;;-145.69;69.49;71887.94;5072463;28;20661;-76
2022/03/29 04:27:19;;;;;;;14.80;5.63;;;;;;;-145.69;68.41;71891.94;5072478;28;20551;-77
2022/03/29 04:29:48;;;;;;;16.10;5.67;;;;;;;-145.69;68.97;71872.03;5072646;28;20199;-76
2022/03/29 04:32:14;;;;;;;13.93;5.70;;;;;;;-145.69;70.79;71893.91;5072337;28;20191;-76
2022/03/29 04:34:41;;;;;;;14.00;5.30;;;;;;;-145.69;71.99;71909.84;5072721;28;20222;-76
2022/03/29 04:37:07;;;;;;;12.13;5.67;;;;;;;-145.69;71.38;71931.72;5072361;28;20293;-77
2022/03/29 04:39:34;;;;;;;14.40;5.67;;;;;;;-145.69;72.43;71941.69;5073034;28;20202;-77
2022/03/29 04:42:00;;;;;;;14.48;6.40;;;;;;;-145.69;71.21;71931.72;5075461;28;20454;-76
2022/03/29 04:44:27;;;;;;;15.40;6.00;;;;;;;-145.69;71.89;71929.75;5076171;28;20203;-77
2022/03/29 04:46:54;;;;;;;16.70;6.30;;;;;;;-145.69;68.21;71852.13;5076038;28;20206;-77
2022/03/29 04:49:21;;;;;;;15.30;6.00;;;;;;;-145.69;68.40;71856.09;5075750;28;20191;-77
2022/03/29 04:51:47;;;;;;;15.23;6.13;;;;;;;-145.69;72.15;71868.06;5076041;28;20232;-77
2022/03/29 04:54:14;;;;;;;13.87;5.90;;;;;;;-145.69;68.89;71858.09;5075709;28;20206;-77
2022/03/29 04:56:41;;;;;;;15.93;5.83;;;;;;;-145.69;70.59;71876.00;5075675;28;20667;-76
2022/03/29 04:59:08;;;;;;;12.50;6.03;;;;;;;-145.69;67.72;71866.06;5075698;28;20201;-77
2022/03/29 05:01:36;;;;;;;17.50;6.23;;;;;;;-145.69;72.09;71887.94;5075666;28;20226;-76
2022/03/29 05:04:05;;;;;;;22.77;6.13;;;;;;;-145.69;69.51;71878.00;5075617;28;20195;-76
2022/03/29 05:06:31;;;;;;;13.07;5.90;;;;;;;-145.69;72.31;71887.94;5075637;28;20257;-76
2022/03/29 05:08:57;;;;;;;18.63;5.80;;;;;;;-145.69;72.36;71889.94;5075502;28;20199;-77
2022/03/29 05:11:24;;;;;;;12.07;5.47;;;;;;;-145.69;72.86;71899.88;5075792;28;20209;-76
2022/03/29 05:13:50;;;;;;;13.60;5.63;;;;;;;-145.69;73.60;71903.88;5075565;28;20202;-77
2022/03/29 05:16:17;;;;;;;13.40;5.70;;;;;;;-145.69;73.35;71909.84;5075408;28;20246;-77
2022/03/29 05:18:44;;;;;;;13.77;5.77;;;;;;;-145.69;70.84;71844.16;5059908;28;20276;-76
2022/03/29 05:21:12;;;;;;;11.03;5.37;;;;;;;-145.69;69.82;71842.19;5055355;28;20203;-77
2022/03/29 05:23:39;;;;;;;13.53;5.97;;;;;;;-145.69;71.61;71840.19;5055623;28;20199;-77
2022/03/29 05:26:05;;;;;;;18.23;5.77;;;;;;;-145.69;73.84;71876.00;5055269;28;20654;-76
2022/03/29 05:28:31;;;;;;;14.70;5.97;;;;;;;-145.69;73.89;71878.00;5055321;28;20269;-77
2022/03/29 05:30:58;;;;;;;13.43;5.80;;;;;;;-145.69;72.52;71878.00;5055270;28;20199;-77
2022/03/29 05:33:25;;;;;;;13.83;5.73;;;;;;;-145.69;72.36;71830.25;5071515;28;20206;-77
2022/03/29 05:35:51;;;;;;;13.90;5.73;;;;;;;-145.69;72.04;71826.25;5075066;28;20203;-77
2022/03/29 05:38:19;;;;;;;10.67;5.07;;;;;;;-145.69;73.00;71852.13;5075108;28;20202;-77
2022/03/29 05:40:46;;;;;;;12.53;5.93;;;;;;;-145.69;73.02;71852.13;5075180;28;20194;-77
2022/03/29 05:43:12;;;;;;;18.20;6.20;;;;;;;-145.69;70.18;71796.41;5074939;28;20764;-76
2022/03/29 05:45:40;;;;;;;13.03;5.67;;;;;;;-145.69;71.08;71768.53;5074995;28;20202;-77
2022/03/29 05:50:52;;;;;;;11.23;5.30;;;;;;;-145.69;68.24;71724.75;5074640;28;20214;-77
2022/03/29 05:53:20;;;;;;;14.23;6.07;;;;;;;-145.69;69.51;71754.63;5074624;28;20252;-76
2022/03/29 05:55:48;;;;;;;12.57;5.50;;;;;;;-145.69;69.66;71768.53;5074850;28;20291;-76
2022/03/29 05:58:16;;;;;;;12.03;5.43;;;;;;;-145.69;70.41;71750.63;5074831;28;20194;-77
2022/03/29 06:00:43;;;;;;;13.97;5.70;;;;;;;-145.69;70.74;71728.75;5074690;28;20202;-76
2022/03/29 06:03:10;;;;;;;13.73;5.77;;;;;;;-145.69;68.67;71694.91;5074199;28;20269;-78
2022/03/29 06:05:41;;;;;;;15.10;6.10;;;;;;;-145.69;68.59;71663.06;5074631;28;20201;-76
2022/03/29 06:08:08;;;;;;;16.23;7.25;;;;;;;-145.69;67.41;71647.16;5073165;28;20939;-76
2022/03/29 06:10:36;;;;;;;17.80;6.70;;;;;;;-145.69;67.78;71631.25;5074280;28;20653;-76
2022/03/29 06:13:02;;;;;;;14.50;6.27;;;;;;;-145.69;67.99;71633.22;5074347;28;20206;-77
2022/03/29 06:15:29;;;;;;;13.97;6.17;;;;;;;-145.69;68.35;71629.25;5074150;28;20264;-77
2022/03/29 06:17:55;;;;;;;14.53;6.13;;;;;;;-145.69;68.29;71619.28;5074621;28;20199;-77
2022/03/29 06:20:23;;;;;;;11.57;5.73;;;;;;;-145.69;67.92;71613.31;5074423;28;20206;-76
2022/03/29 06:22:49;;;;;;;16.70;6.23;;;;;;;-145.69;65.71;71595.41;5074207;28;20226;-77
2022/03/29 06:25:15;;;;;;;19.73;6.23;;;;;;;-145.69;64.27;71565.56;5074252;28;20202;-77
2022/03/29 06:27:43;;;;;;;14.67;6.10;;;;;;;-145.69;63.33;71541.69;5074566;28;20202;-77
2022/03/29 06:30:11;;;;;;;13.33;6.13;;;;;;;-145.69;61.94;71525.78;5074011;28;20198;-77
2022/03/29 06:32:45;;;;;;;16.90;6.67;;;;;;;-145.69;63.67;71517.81;5074015;28;20245;-77
2022/03/29 06:35:12;;;;;;;14.40;5.83;;;;;;;-145.69;69.25;71527.75;5074138;28;20205;-78
2022/03/29 06:37:39;;;;;;;15.07;5.90;;;;;;;-145.69;66.41;71561.59;5073877;28;20199;-77
2022/03/29 06:40:07;;;;;;;10.43;5.47;;;;;;;-145.69;67.24;71545.66;5073596;28;20191;-77
2022/03/29 06:42:33;;;;;;;16.13;5.90;;;;;;;-145.69;63.39;71525.78;5073532;28;20858;-77
2022/03/29 06:45:01;;;;;;;13.33;5.40;;;;;;;-145.69;66.87;71533.72;5073729;28;20211;-77
2022/03/29 06:47:27;;;;;;;11.87;5.30;;;;;;;-145.69;65.81;71535.72;5073815;28;20245;-77
2022/03/29 06:49:54;;;;;;;13.40;6.40;;;;;;;-145.69;67.12;71513.81;5073770;28;20199;-76
2022/03/29 06:52:21;;;;;;;19.17;5.90;;;;;;;-145.69;65.10;71468.06;5073581;28;20230;-77
2022/03/29 06:54:48;;;;;;;11.10;6.00;;;;;;;-145.69;64.36;71428.25;5073601;28;20202;-76
2022/03/29 06:57:15;;;;;;;13.80;6.20;;;;;;;-145.69;60.82;71410.34;5073362;28;20562;-77
2022/03/29 06:59:41;;;;;;;19.20;6.63;;;;;;;-145.69;58.56;71400.41;5073605;28;20649;-77
2022/03/29 07:02:09;;;;;;;15.80;6.60;;;;;;;-145.69;60.56;71406.38;5073216;28;20218;-77
2022/03/29 07:04:36;;;;;;;9.93;5.60;;;;;;;-145.69;60.61;71390.47;5073287;28;20199;-77
2022/03/29 07:07:02;;;;;;;12.67;6.27;;;;;;;-145.69;61.56;71358.63;5073238;28;20209;-77
2022/03/29 07:12:13;;;;;;;18.83;6.23;;;;;;;-145.69;60.31;71302.91;5063510;28;20332;-77
2022/03/29 07:14:40;;;;;;;12.03;6.00;;;;;;;-145.69;61.48;71273.06;5053042;28;20204;-77
2022/03/29 07:17:10;;;;;;;14.53;6.37;;;;;;;-145.69;59.50;71271.06;5052898;28;20238;-77
2022/03/29 07:19:37;;;;;;;16.80;5.90;;;;;;;-145.69;57.12;71294.94;5053202;28;20293;-77
2022/03/29 07:22:04;;;;;;;13.87;5.53;;;;;;;-145.69;57.88;71298.94;5053120;28;20238;-77
2022/03/29 07:24:31;;;;;;;11.67;5.43;;;;;;;-145.69;58.15;71271.06;5053299;28;20206;-77
2022/03/29 07:26:58;;;;;;;13.43;5.77;;;;;;;-145.69;59.69;71255.16;5053086;28;20203;-77
2022/03/29 07:29:25;;;;;;;15.47;5.70;;;;;;;-145.69;62.22;71253.16;5053020;28;20204;-77
2022/03/29 07:31:52;;;;;;;10.20;5.13;;;;;;;-145.69;57.19;71245.19;5058005;28;20658;-77
2022/03/29 07:34:19;;;;;;;12.93;6.57;;;;;;;-145.69;57.39;71251.16;5071918;28;20453;-77
2022/03/29 07:36:48;;;;;;;15.90;6.13;;;;;;;-145.69;58.28;71261.13;5072850;28;20256;-77
2022/03/29 07:39:15;;;;;;;13.67;6.20;;;;;;;-145.69;60.43;71251.16;5073060;28;20290;-77
2022/03/29 07:41:42;;;;;;;11.00;5.53;;;;;;;-145.69;60.06;71235.25;5073048;28;20207;-77
2022/03/29 07:44:08;;;;;;;9.30;5.07;;;;;;;-145.69;60.54;71215.34;5072762;28;20339;-77
2022/03/29 07:46:35;;;;;;;12.23;5.20;;;;;;;-145.69;60.25;71205.41;5072890;28;20574;-77
2022/03/29 07:49:02;;;;;;;11.47;4.73;;;;;;;-145.69;59.24;71235.25;5072815;28;20209;-77
2022/03/29 07:51:28;;;;;;;7.80;4.50;;;;;;;-145.69;58.90;71247.19;5072556;28;20202;-79
2022/03/29 07:53:56;;;;;;;8.17;4.53;;;;;;;-145.69;60.26;71251.16;5072711;28;20244;-77
2022/03/29 07:56:23;;;;;;;9.13;4.80;;;;;;;-145.69;59.36;71229.28;5072865;28;20195;-78
2022/03/29 07:58:49;;;;;;;8.87;4.80;;;;;;;-145.69;61.59;71227.28;5072833;28;20203;-78
2022/03/29 08:01:16;;;;;;;14.23;5.23;;;;;;;-145.69;60.51;71197.44;5072337;28;20199;-77
2022/03/29 08:03:42;;;;;;;9.50;5.23;;;;;;;-145.69;59.27;71189.47;5072099;28;20237;-77
2022/03/29 08:06:09;;;;;;;12.63;6.00;;;;;;;-145.69;55.73;71159.63;5072695;28;20252;-78
2022/03/29 08:08:36;;;;;;;12.67;6.10;;;;;;;-145.69;54.42;71113.88;5072568;28;20244;-78
2022/03/29 08:11:05;;;;;;;13.27;5.87;;;;;;;-145.69;53.65;71074.09;5072566;28;20202;-78
2022/03/29 08:13:31;;;;;;;13.83;6.47;;;;;;;-145.69;47.93;71028.31;5072521;28;20195;-77
2022/03/29 08:15:58;;;;;;;14.43;7.67;;;;;;;-145.69;45.24;71022.34;5075073;28;20321;-77
2022/03/29 08:18:25;;;;;;;18.13;7.40;;;;;;;-145.69;41.39;70980.56;5076373;28;20205;-77
2022/03/29 08:20:52;;;;;;;14.80;6.95;;;;;;;-145.69;41.73;70956.69;5076366;28;20610;-77
2022/03/29 08:23:19;;;;;;;14.85;6.93;;;;;;;-145.69;42.82;70932.81;5076499;28;20254;-78
2022/03/29 08:25:45;;;;;;;16.98;5.88;;;;;;;-145.69;39.48;70938.78;5076368;28;20199;-79
2022/03/29 08:28:14;;;;;;;18.38;7.07;;;;;;;-145.69;40.62;70924.84;5076395;28;20293;-76
2022/03/29 08:30:42;;;;;;;13.98;6.78;;;;;;;-145.69;37.63;70920.88;5064860;28;20198;-75
2022/03/29 08:33:09;;;;;;;17.83;6.78;;;;;;;-145.69;38.96;70910.94;5075336;28;20203;-77
2022/03/29 08:35:38;;;;;;;15.38;6.30;;;;;;;-145.69;40.47;70891.03;5075908;28;20206;-77
2022/03/29 08:38:05;;;;;;;20.10;6.55;;;;;;;-145.69;38.20;70893.03;5075980;28;20206;-77
2022/03/29 08:40:32;;;;;;;13.60;6.85;;;;;;;-145.69;37.26;70877.09;5076048;28;20199;-76
2022/03/29 08:43:00;;;;;;;15.95;6.53;;;;;;;-145.69;35.50;70916.91;5075922;28;20227;-76
2022/03/29 08:45:29;;;;;;;16.95;6.93;;;;;;;-145.69;37.32;70899.00;5075789;28;20206;-76
2022/03/29 08:47:57;;;;;;;13.95;6.47;;;;;;;-145.69;37.43;70873.13;5075752;28;20671;-76
2022/03/29 08:50:27;;;;;;;14.68;6.50;;;;;;;-145.69;35.53;70851.25;5075825;28;20218;-76
2022/03/29 08:52:54;;;;;;;15.57;6.60;;;;;;;-145.69;36.33;70839.31;5075883;28;20195;-76
2022/03/29 08:55:22;;;;;;;18.38;7.53;;;;;;;-145.69;36.58;70791.56;5075763;28;20202;-76
2022/03/29 08:57:52;;;;;;;15.32;6.70;;;;;;;-145.69;34.98;70807.47;5075651;28;20209;-77
2022/03/29 09:00:19;;;;;;;13.45;6.68;;;;;;;-145.69;33.76;70757.72;5075536;28;20195;-77
2022/03/29 09:02:47;;;;;;;13.02;6.30;;;;;;;-145.69;35.47;70741.81;5075040;28;20227;-75
2022/03/29 09:05:15;;;;;;;23.13;6.63;;;;;;;-145.69;33.95;70741.81;5075366;28;20269;-75
2022/03/29 09:07:50;;;;;;;17.58;7.10;;;;;;;-145.69;34.37;70745.78;5075547;28;20241;-76
2022/03/29 09:10:16;;;;;;;15.15;6.57;;;;;;;-145.69;32.78;70733.84;5075146;28;20198;-76
2022/03/29 09:12:43;;;;;;;12.13;6.50;;;;;;;-145.69;32.53;70708.00;5073787;28;20203;-76
2022/03/29 09:15:10;;;;;;;14.90;6.55;;;;;;;-145.69;31.60;70696.06;5057282;28;20203;-77
2022/03/29 09:17:38;;;;;;;18.55;6.25;;;;;;;-145.69;32.36;70715.94;5055096;28;20196;-76
2022/03/29 09:20:09;;;;;;;14.15;6.55;;;;;;;-145.69;32.97;70731.88;5055368;28;20211;-76
2022/03/29 09:22:41;;;;;;;12.90;6.55;;;;;;;-145.69;34.64;70678.16;5055328;28;20237;-77
2022/03/29 09:25:11;;;;;;;14.32;6.30;;;;;;;-145.69;31.13;70713.97;5055003;28;20203;-76
2022/03/29 09:27:52;;;;;;;13.55;6.75;;;;;;;-145.69;33.43;70674.16;5054008;28;20261;-76
2022/03/29 09:30:25;;;;;;;17.40;6.90;;;;;;;-145.69;32.22;70626.41;5054959;28;20210;-76
2022/03/29 09:33:03;;;;;;;11.35;6.20;;;;;;;-145.69;31.68;70588.63;5055078;28;20218;-76
2022/03/29 09:35:40;;;;;;;18.30;6.93;;;;;;;-145.69;30.37;70668.19;5054994;28;20293;-76
2022/03/29 09:38:22;;;;;;;16.60;5.50;;;;;;;-145.69;31.27;70614.47;5055041;28;20624;-76
2022/03/29 09:40:51;;;;;;;13.80;6.03;;;;;;;-145.69;31.98;70602.56;5065094;28;20223;-76
2022/03/29 09:43:21;;;;;;;12.25;5.82;;;;;;;-145.69;29.37;70694.06;5074574;28;20223;-76
2022/03/29 09:45:52;;;;;;;14.38;5.95;;;;;;;-145.69;31.35;70692.06;5074717;28;20736;-77
2022/03/29 09:48:26;;;;;;;15.60;6.03;;;;;;;-145.69;30.79;70638.34;5074947;28;20202;-76
2022/03/29 09:50:58;;;;;;;14.10;6.05;;;;;;;-145.69;31.68;70652.28;5074468;28;20233;-77
2022/03/29 09:53:34;;;;;;;22.55;6.10;;;;;;;-145.69;30.48;70711.97;5074677;28;20261;-77
2022/03/29 09:56:01;;;;;;;16.27;6.25;;;;;;;-145.69;31.45;70711.97;5074756;28;20206;-76
2022/03/29 09:58:28;;;;;;;14.57;6.50;;;;;;;-145.69;32.05;70656.25;5074289;28;20722;-76
2022/03/29 10:00:56;;;;;;;15.95;6.50;;;;;;;-145.69;30.78;70686.09;5074501;28;20230;-77
2022/03/29 10:03:25;;;;;;;10.77;5.85;;;;;;;-145.69;31.53;70708.00;5073905;28;20689;-76
2022/03/29 10:05:53;;;;;;;15.90;5.70;;;;;;;-145.69;30.48;70684.13;5074403;28;20680;-77
2022/03/29 10:11:10;;;;;;;16.48;6.03;;;;;;;-145.69;31.39;70660.25;5074362;28;20217;-76
2022/03/29 10:13:37;;;;;;;19.52;5.97;;;;;;;-145.69;30.83;70682.13;5074039;28;20195;-76
2022/03/29 10:16:10;;;;;;;17.13;6.25;;;;;;;-145.69;32.03;70670.19;5073787;28;20296;-77
2022/03/29 10:18:44;;;;;;;18.92;5.88;;;;;;;-145.69;32.53;70622.44;5074173;28;20195;-77
2022/03/29 10:21:12;;;;;;;15.95;5.85;;;;;;;-145.69;31.32;70574.69;5074136;28;20237;-77
2022/03/29 10:23:44;;;;;;;15.88;6.25;;;;;;;-145.69;32.45;70570.72;5073543;28;20581;-77
2022/03/29 10:26:11;;;;;;;15.07;6.15;;;;;;;-145.69;31.37;70574.69;5074173;28;20210;-77
2022/03/29 10:28:38;;;;;;;18.13;6.10;;;;;;;-145.69;30.42;70620.44;5073881;28;20209;-76
2022/03/29 10:31:28;;;;;;;13.32;5.55;;;;;;;-145.69;32.44;70558.78;5073819;28;20202;-77
2022/03/29 10:34:19;;;;;;;16.13;6.43;;;;;;;-145.69;31.12;70530.94;5073776;28;20206;-77
2022/03/29 10:37:00;;;;;;;16.10;6.45;;;;;;;-145.69;30.63;70596.59;5073845;28;20206;-77
2022/03/29 10:39:51;;;;;;;12.98;5.65;;;;;;;-145.69;31.03;70566.75;5073553;28;20199;-77
2022/03/29 10:42:26;;;;;;;14.48;5.50;;;;;;;-145.69;30.37;70580.66;5073605;28;20234;-77
2022/03/29 10:45:01;;;;;;;22.45;6.28;;;;;;;-145.69;30.64;70576.69;5073769;28;20226;-77
2022/03/29 10:47:29;;;;;;;22.38;6.18;;;;;;;-145.69;31.27;70522.97;5073673;28;20570;-77
2022/03/29 10:49:55;;;;;;;17.42;6.63;;;;;;;-145.69;32.43;70465.28;5073601;28;20217;-78
2022/03/29 10:52:31;;;;;;;16.38;5.72;;;;;;;-145.69;30.12;70431.47;5073284;28;20260;-77
2022/03/29 10:55:28;;;;;;;16.13;6.20;;;;;;;-145.69;29.88;70463.28;5073651;28;20206;-76
2022/03/29 10:58:11;;;;;;;16.35;5.82;;;;;;;-145.69;30.61;70519.00;5073240;28;20574;-76
2022/03/29 11:00:40;;;;;;;21.92;6.65;;;;;;;-145.69;30.25;70532.91;5073364;28;20226;-76
2022/03/29 11:03:12;;;;;;;20.60;6.53;;;;;;;-145.69;30.59;70562.75;5073099;28;20226;-76
2022/03/29 11:06:04;;;;;;;21.67;6.10;;;;;;;-145.69;30.99;70552.81;5073404;28;20209;-76
2022/03/29 11:08:31;;;;;;;20.42;6.38;;;;;;;-145.69;31.14;70540.88;5073309;28;20252;-77
2022/03/29 11:11:00;;;;;;;18.30;6.45;;;;;;;-145.69;31.37;70562.75;5073201;28;20198;-76
2022/03/29 11:13:27;;;;;;;22.75;6.20;;;;;;;-145.69;30.74;70499.09;5072734;28;20661;-76
2022/03/29 11:15:57;;;;;;;16.48;6.03;;;;;;;-145.69;30.81;70461.31;5073422;28;20283;-76
2022/03/29 11:18:42;;;;;;;17.50;6.35;;;;;;;-145.69;31.50;70459.31;5063847;28;20678;-76
2022/03/29 11:21:10;;;;;;;22.70;6.18;;;;;;;-145.69;31.12;70459.31;5053138;28;20227;-76
2022/03/29 11:23:38;;;;;;;19.95;6.13;;;;;;;-145.69;30.46;70509.03;5052853;28;20223;-76
2022/03/29 11:26:10;;;;;;;23.23;6.63;;;;;;;-145.69;30.86;70471.25;5058006;28;20191;-76